sensor_id;sensor_type;location;lat;lon;timestamp;P1;durP1;ratioP1;P2;durP2;ratioP2
47519;SDS011;33252;48.122;11.538;2023-09-19T00:02:02;11.48;;;10.85;;
47519;SDS011;33252;48.122;11.538;2023-09-19T00:04:32;7.22;;;6.82;;
47519;SDS011;33252;48.122;11.538;2023-09-19T00:06:58;17.10;;;16.40;;
47519;SDS011;33252;48.122;11.538;2023-09-19T00:09:24;22.65;;;21.95;;
47519;SDS011;33252;48.122;11.538;2023-09-19T00:11:53;27.08;;;26.23;;
47519;SDS011;33252;48.122;11.538;2023-09-19T00:14:19;20.63;;;20.02;;
47519;SDS011;33252;48.122;11.538;2023-09-19T00:16:44;16.75;;;16.15;;
47519;SDS011;33252;48.122;11.538;2023-09-19T00:19:11;16.00;;;15.50;;
47519;SDS011;33252;48.122;11.538;2023-09-19T00:21:38;23.25;;;22.55;;
47519;SDS011;33252;48.122;11.538;2023-09-19T00:24:06;32.10;;;31.08;;
47519;SDS011;33252;48.122;11.538;2023-09-19T00:26:33;58.50;;;56.50;;
47519;SDS011;33252;48.122;11.538;2023-09-19T00:28:59;32.58;;;31.48;;
47519;SDS011;33252;48.122;11.538;2023-09-19T00:31:33;29.23;;;28.23;;
47519;SDS011;33252;48.122;11.538;2023-09-19T00:33:59;31.13;;;30.15;;
47519;SDS011;33252;48.122;11.538;2023-09-19T00:36:35;59.25;;;57.40;;
47519;SDS011;33252;48.122;11.538;2023-09-19T00:39:01;33.88;;;32.88;;
47519;SDS011;33252;48.122;11.538;2023-09-19T00:41:28;51.65;;;50.10;;
47519;SDS011;33252;48.122;11.538;2023-09-19T00:43:55;27.48;;;26.58;;
47519;SDS011;33252;48.122;11.538;2023-09-19T00:46:21;17.35;;;16.65;;
47519;SDS011;33252;48.122;11.538;2023-09-19T00:48:46;11.57;;;11.07;;
47519;SDS011;33252;48.122;11.538;2023-09-19T00:51:12;39.97;;;38.47;;
47519;SDS011;33252;48.122;11.538;2023-09-19T00:53:39;20.80;;;19.95;;
47519;SDS011;33252;48.122;11.538;2023-09-19T00:56:11;13.13;;;12.50;;
47519;SDS011;33252;48.122;11.538;2023-09-19T00:58:36;16.77;;;16.20;;
47519;SDS011;33252;48.122;11.538;2023-09-19T01:01:03;20.60;;;20.00;;
47519;SDS011;33252;48.122;11.538;2023-09-19T01:03:32;61.30;;;59.22;;
47519;SDS011;33252;48.122;11.538;2023-09-19T01:06:01;26.33;;;25.42;;
47519;SDS011;33252;48.122;11.538;2023-09-19T01:08:27;60.72;;;58.63;;
47519;SDS011;33252;48.122;11.538;2023-09-19T01:11:02;15.40;;;14.90;;
47519;SDS011;33252;48.122;11.538;2023-09-19T01:13:39;14.50;;;14.05;;
47519;SDS011;33252;48.122;11.538;2023-09-19T01:19:45;17.40;;;16.90;;
47519;SDS011;33252;48.122;11.538;2023-09-19T01:31:28;13.93;;;13.27;;
47519;SDS011;33252;48.122;11.538;2023-09-19T01:34:01;10.80;;;10.40;;
47519;SDS011;33252;48.122;11.538;2023-09-19T01:36:33;19.83;;;19.10;;
47519;SDS011;33252;48.122;11.538;2023-09-19T01:39:07;14.52;;;14.10;;
47519;SDS011;33252;48.122;11.538;2023-09-19T01:41:58;17.38;;;16.77;;
47519;SDS011;33252;48.122;11.538;2023-09-19T01:44:36;12.30;;;11.90;;
47519;SDS011;33252;48.122;11.538;2023-09-19T01:47:22;21.55;;;20.85;;
47519;SDS011;33252;48.122;11.538;2023-09-19T01:50:02;19.88;;;19.05;;
47519;SDS011;33252;48.122;11.538;2023-09-19T01:52:54;40.03;;;38.83;;
47519;SDS011;33252;48.122;11.538;2023-09-19T01:55:26;21.95;;;21.30;;
47519;SDS011;33252;48.122;11.538;2023-09-19T02:00:44;15.30;;;14.82;;
47519;SDS011;33252;48.122;11.538;2023-09-19T02:03:13;26.45;;;25.38;;
47519;SDS011;33252;48.122;11.538;2023-09-19T02:05:39;50.42;;;48.70;;
47519;SDS011;33252;48.122;11.538;2023-09-19T02:08:05;18.73;;;18.17;;
47519;SDS011;33252;48.122;11.538;2023-09-19T02:10:30;13.85;;;13.45;;
47519;SDS011;33252;48.122;11.538;2023-09-19T02:12:56;34.78;;;33.50;;
47519;SDS011;33252;48.122;11.538;2023-09-19T02:15:22;54.22;;;52.20;;
47519;SDS011;33252;48.122;11.538;2023-09-19T02:17:47;55.88;;;53.88;;
47519;SDS011;33252;48.122;11.538;2023-09-19T02:20:13;44.63;;;43.20;;
47519;SDS011;33252;48.122;11.538;2023-09-19T02:22:43;41.42;;;40.22;;
47519;SDS011;33252;48.122;11.538;2023-09-19T02:25:09;27.98;;;27.17;;
47519;SDS011;33252;48.122;11.538;2023-09-19T02:27:36;50.13;;;48.50;;
47519;SDS011;33252;48.122;11.538;2023-09-19T02:30:02;23.33;;;22.63;;
47519;SDS011;33252;48.122;11.538;2023-09-19T02:32:29;19.40;;;18.80;;
47519;SDS011;33252;48.122;11.538;2023-09-19T02:34:56;19.23;;;18.30;;
47519;SDS011;33252;48.122;11.538;2023-09-19T02:37:23;18.10;;;17.58;;
47519;SDS011;33252;48.122;11.538;2023-09-19T02:39:49;22.98;;;22.25;;
47519;SDS011;33252;48.122;11.538;2023-09-19T02:42:14;30.38;;;29.35;;
47519;SDS011;33252;48.122;11.538;2023-09-19T02:44:40;35.30;;;34.20;;
47519;SDS011;33252;48.122;11.538;2023-09-19T02:47:06;48.58;;;47.08;;
47519;SDS011;33252;48.122;11.538;2023-09-19T02:49:31;52.42;;;50.83;;
47519;SDS011;33252;48.122;11.538;2023-09-19T02:51:57;21.63;;;21.00;;
47519;SDS011;33252;48.122;11.538;2023-09-19T02:54:26;40.28;;;38.90;;
47519;SDS011;33252;48.122;11.538;2023-09-19T02:56:51;37.20;;;35.90;;
47519;SDS011;33252;48.122;11.538;2023-09-19T02:59:19;33.10;;;32.00;;
47519;SDS011;33252;48.122;11.538;2023-09-19T03:01:44;32.90;;;31.60;;
47519;SDS011;33252;48.122;11.538;2023-09-19T03:04:13;36.22;;;35.13;;
47519;SDS011;33252;48.122;11.538;2023-09-19T03:06:45;27.63;;;26.67;;
47519;SDS011;33252;48.122;11.538;2023-09-19T03:09:11;36.25;;;35.15;;
47519;SDS011;33252;48.122;11.538;2023-09-19T03:11:38;30.20;;;29.30;;
47519;SDS011;33252;48.122;11.538;2023-09-19T03:14:05;28.15;;;27.33;;
47519;SDS011;33252;48.122;11.538;2023-09-19T03:16:30;28.35;;;27.40;;
47519;SDS011;33252;48.122;11.538;2023-09-19T03:18:56;31.85;;;30.65;;
47519;SDS011;33252;48.122;11.538;2023-09-19T03:21:24;38.38;;;37.17;;
47519;SDS011;33252;48.122;11.538;2023-09-19T03:23:50;43.05;;;41.65;;
47519;SDS011;33252;48.122;11.538;2023-09-19T03:26:16;36.80;;;35.70;;
47519;SDS011;33252;48.122;11.538;2023-09-19T03:28:42;27.60;;;26.73;;
47519;SDS011;33252;48.122;11.538;2023-09-19T03:31:08;25.80;;;25.00;;
47519;SDS011;33252;48.122;11.538;2023-09-19T03:33:35;45.80;;;44.33;;
47519;SDS011;33252;48.122;11.538;2023-09-19T03:36:01;40.92;;;39.65;;
47519;SDS011;33252;48.122;11.538;2023-09-19T03:38:31;54.58;;;52.78;;
47519;SDS011;33252;48.122;11.538;2023-09-19T03:40:57;21.15;;;20.45;;
47519;SDS011;33252;48.122;11.538;2023-09-19T03:43:24;36.22;;;34.85;;
47519;SDS011;33252;48.122;11.538;2023-09-19T03:45:49;37.33;;;36.03;;
47519;SDS011;33252;48.122;11.538;2023-09-19T03:48:16;33.58;;;32.40;;
47519;SDS011;33252;48.122;11.538;2023-09-19T03:50:42;29.63;;;28.58;;
47519;SDS011;33252;48.122;11.538;2023-09-19T03:53:09;31.13;;;30.20;;
47519;SDS011;33252;48.122;11.538;2023-09-19T03:55:34;32.08;;;31.08;;
47519;SDS011;33252;48.122;11.538;2023-09-19T03:58:00;34.90;;;33.70;;
47519;SDS011;33252;48.122;11.538;2023-09-19T04:00:27;36.55;;;35.38;;
47519;SDS011;33252;48.122;11.538;2023-09-19T04:02:54;36.20;;;35.15;;
47519;SDS011;33252;48.122;11.538;2023-09-19T04:05:21;61.40;;;59.50;;
47519;SDS011;33252;48.122;11.538;2023-09-19T04:07:47;57.63;;;55.83;;
47519;SDS011;33252;48.122;11.538;2023-09-19T04:10:13;84.70;;;81.90;;
47519;SDS011;33252;48.122;11.538;2023-09-19T04:12:40;71.32;;;68.93;;
47519;SDS011;33252;48.122;11.538;2023-09-19T04:15:06;33.28;;;32.25;;
47519;SDS011;33252;48.122;11.538;2023-09-19T04:17:33;29.20;;;28.20;;
47519;SDS011;33252;48.122;11.538;2023-09-19T04:19:59;53.90;;;52.17;;
47519;SDS011;33252;48.122;11.538;2023-09-19T04:22:25;28.90;;;27.90;;
47519;SDS011;33252;48.122;11.538;2023-09-19T04:24:50;17.65;;;17.15;;
47519;SDS011;33252;48.122;11.538;2023-09-19T04:27:16;22.85;;;22.15;;
47519;SDS011;33252;48.122;11.538;2023-09-19T04:29:43;14.38;;;13.77;;
47519;SDS011;33252;48.122;11.538;2023-09-19T04:32:09;13.45;;;12.82;;
47519;SDS011;33252;48.122;11.538;2023-09-19T04:34:35;24.58;;;23.75;;
47519;SDS011;33252;48.122;11.538;2023-09-19T04:37:02;46.33;;;44.83;;
47519;SDS011;33252;48.122;11.538;2023-09-19T04:39:28;32.70;;;31.58;;
47519;SDS011;33252;48.122;11.538;2023-09-19T04:41:54;38.53;;;37.13;;
47519;SDS011;33252;48.122;11.538;2023-09-19T04:44:20;42.20;;;40.75;;
47519;SDS011;33252;48.122;11.538;2023-09-19T04:46:46;17.48;;;16.88;;
47519;SDS011;33252;48.122;11.538;2023-09-19T04:49:12;14.48;;;14.05;;
47519;SDS011;33252;48.122;11.538;2023-09-19T04:51:38;16.40;;;15.65;;
47519;SDS011;33252;48.122;11.538;2023-09-19T04:54:05;30.38;;;29.25;;
47519;SDS011;33252;48.122;11.538;2023-09-19T04:56:31;49.40;;;47.65;;
47519;SDS011;33252;48.122;11.538;2023-09-19T04:58:57;27.23;;;26.38;;
47519;SDS011;33252;48.122;11.538;2023-09-19T05:01:24;34.70;;;33.50;;
47519;SDS011;33252;48.122;11.538;2023-09-19T05:03:50;50.72;;;49.03;;
47519;SDS011;33252;48.122;11.538;2023-09-19T05:06:21;42.03;;;40.72;;
47519;SDS011;33252;48.122;11.538;2023-09-19T05:08:48;45.17;;;43.78;;
47519;SDS011;33252;48.122;11.538;2023-09-19T05:11:17;29.63;;;28.70;;
47519;SDS011;33252;48.122;11.538;2023-09-19T05:13:47;14.95;;;14.35;;
47519;SDS011;33252;48.122;11.538;2023-09-19T05:16:15;33.85;;;32.63;;
47519;SDS011;33252;48.122;11.538;2023-09-19T05:18:41;37.90;;;36.55;;
47519;SDS011;33252;48.122;11.538;2023-09-19T05:21:07;21.98;;;21.33;;
47519;SDS011;33252;48.122;11.538;2023-09-19T05:23:32;25.15;;;24.40;;
47519;SDS011;33252;48.122;11.538;2023-09-19T05:25:58;32.55;;;31.50;;
47519;SDS011;33252;48.122;11.538;2023-09-19T05:28:25;29.45;;;28.20;;
47519;SDS011;33252;48.122;11.538;2023-09-19T05:30:51;21.05;;;20.10;;
47519;SDS011;33252;48.122;11.538;2023-09-19T05:33:18;20.40;;;19.55;;
47519;SDS011;33252;48.122;11.538;2023-09-19T05:35:44;29.42;;;28.50;;
47519;SDS011;33252;48.122;11.538;2023-09-19T05:38:12;28.27;;;27.38;;
47519;SDS011;33252;48.122;11.538;2023-09-19T05:40:38;27.25;;;26.35;;
47519;SDS011;33252;48.122;11.538;2023-09-19T05:43:08;9.73;;;9.32;;
47519;SDS011;33252;48.122;11.538;2023-09-19T05:45:34;11.00;;;10.52;;
47519;SDS011;33252;48.122;11.538;2023-09-19T05:48:07;27.95;;;27.05;;
47519;SDS011;33252;48.122;11.538;2023-09-19T05:50:34;15.80;;;15.18;;
47519;SDS011;33252;48.122;11.538;2023-09-19T05:53:01;12.57;;;12.18;;
47519;SDS011;33252;48.122;11.538;2023-09-19T05:55:27;33.05;;;32.05;;
47519;SDS011;33252;48.122;11.538;2023-09-19T05:57:53;17.27;;;16.67;;
47519;SDS011;33252;48.122;11.538;2023-09-19T06:00:22;40.75;;;39.45;;
47519;SDS011;33252;48.122;11.538;2023-09-19T06:02:52;35.63;;;34.47;;
47519;SDS011;33252;48.122;11.538;2023-09-19T06:05:19;36.95;;;35.65;;
47519;SDS011;33252;48.122;11.538;2023-09-19T06:07:45;20.30;;;19.65;;
47519;SDS011;33252;48.122;11.538;2023-09-19T06:10:12;10.57;;;10.18;;
47519;SDS011;33252;48.122;11.538;2023-09-19T06:12:41;11.25;;;10.85;;
47519;SDS011;33252;48.122;11.538;2023-09-19T06:15:11;25.83;;;25.05;;
47519;SDS011;33252;48.122;11.538;2023-09-19T06:17:47;26.25;;;25.42;;
47519;SDS011;33252;48.122;11.538;2023-09-19T06:20:20;15.10;;;14.50;;
47519;SDS011;33252;48.122;11.538;2023-09-19T06:22:47;40.60;;;39.28;;
47519;SDS011;33252;48.122;11.538;2023-09-19T06:25:13;48.38;;;46.72;;
47519;SDS011;33252;48.122;11.538;2023-09-19T06:27:50;34.45;;;33.13;;
47519;SDS011;33252;48.122;11.538;2023-09-19T06:30:18;52.90;;;50.78;;
47519;SDS011;33252;48.122;11.538;2023-09-19T06:32:45;44.70;;;43.05;;
47519;SDS011;33252;48.122;11.538;2023-09-19T06:35:11;37.97;;;36.72;;
47519;SDS011;33252;48.122;11.538;2023-09-19T06:37:38;57.85;;;55.85;;
47519;SDS011;33252;48.122;11.538;2023-09-19T06:40:06;34.35;;;33.10;;
47519;SDS011;33252;48.122;11.538;2023-09-19T06:42:45;33.10;;;32.08;;
47519;SDS011;33252;48.122;11.538;2023-09-19T06:45:13;21.25;;;20.45;;
47519;SDS011;33252;48.122;11.538;2023-09-19T06:47:46;17.35;;;16.85;;
47519;SDS011;33252;48.122;11.538;2023-09-19T06:50:16;10.23;;;9.93;;
47519;SDS011;33252;48.122;11.538;2023-09-19T06:52:44;15.25;;;14.75;;
47519;SDS011;33252;48.122;11.538;2023-09-19T06:55:15;19.30;;;18.70;;
47519;SDS011;33252;48.122;11.538;2023-09-19T06:57:42;19.80;;;19.20;;
47519;SDS011;33252;48.122;11.538;2023-09-19T07:00:11;37.13;;;35.88;;
47519;SDS011;33252;48.122;11.538;2023-09-19T07:03:02;58.85;;;56.97;;
47519;SDS011;33252;48.122;11.538;2023-09-19T07:05:31;30.55;;;29.60;;
47519;SDS011;33252;48.122;11.538;2023-09-19T07:07:57;51.60;;;49.75;;
47519;SDS011;33252;48.122;11.538;2023-09-19T07:10:24;42.35;;;41.03;;
47519;SDS011;33252;48.122;11.538;2023-09-19T07:12:57;28.48;;;27.60;;
47519;SDS011;33252;48.122;11.538;2023-09-19T07:15:24;38.70;;;37.55;;
47519;SDS011;33252;48.122;11.538;2023-09-19T07:17:56;55.42;;;53.72;;
47519;SDS011;33252;48.122;11.538;2023-09-19T07:20:22;42.05;;;40.65;;
47519;SDS011;33252;48.122;11.538;2023-09-19T07:22:51;41.70;;;40.38;;
47519;SDS011;33252;48.122;11.538;2023-09-19T07:25:19;24.48;;;23.58;;
47519;SDS011;33252;48.122;11.538;2023-09-19T07:27:45;37.78;;;36.58;;
47519;SDS011;33252;48.122;11.538;2023-09-19T07:30:11;26.77;;;25.92;;
47519;SDS011;33252;48.122;11.538;2023-09-19T07:32:38;25.98;;;25.17;;
47519;SDS011;33252;48.122;11.538;2023-09-19T07:35:05;24.73;;;23.95;;
47519;SDS011;33252;48.122;11.538;2023-09-19T07:37:31;9.82;;;9.43;;
47519;SDS011;33252;48.122;11.538;2023-09-19T07:40:02;12.65;;;12.10;;
47519;SDS011;33252;48.122;11.538;2023-09-19T07:42:32;21.23;;;20.42;;
47519;SDS011;33252;48.122;11.538;2023-09-19T07:45:04;17.05;;;16.30;;
47519;SDS011;33252;48.122;11.538;2023-09-19T07:47:30;29.73;;;28.67;;
47519;SDS011;33252;48.122;11.538;2023-09-19T07:49:57;13.05;;;12.55;;
47519;SDS011;33252;48.122;11.538;2023-09-19T07:52:24;12.38;;;11.98;;
47519;SDS011;33252;48.122;11.538;2023-09-19T07:54:49;30.13;;;29.15;;
47519;SDS011;33252;48.122;11.538;2023-09-19T07:57:15;47.00;;;45.47;;
47519;SDS011;33252;48.122;11.538;2023-09-19T07:59:41;70.82;;;67.80;;
47519;SDS011;33252;48.122;11.538;2023-09-19T08:02:08;52.40;;;50.70;;
47519;SDS011;33252;48.122;11.538;2023-09-19T08:04:40;47.30;;;45.77;;
47519;SDS011;33252;48.122;11.538;2023-09-19T08:07:07;38.50;;;37.20;;
47519;SDS011;33252;48.122;11.538;2023-09-19T08:09:33;64.13;;;62.05;;
47519;SDS011;33252;48.122;11.538;2023-09-19T08:11:59;39.63;;;38.40;;
47519;SDS011;33252;48.122;11.538;2023-09-19T08:14:30;53.83;;;52.10;;
47519;SDS011;33252;48.122;11.538;2023-09-19T08:16:56;35.42;;;34.17;;
47519;SDS011;33252;48.122;11.538;2023-09-19T08:19:23;20.88;;;20.10;;
47519;SDS011;33252;48.122;11.538;2023-09-19T08:21:53;43.15;;;41.60;;
47519;SDS011;33252;48.122;11.538;2023-09-19T08:26:55;37.58;;;36.13;;
47519;SDS011;33252;48.122;11.538;2023-09-19T08:29:24;15.57;;;15.00;;
47519;SDS011;33252;48.122;11.538;2023-09-19T08:31:53;25.48;;;24.58;;
47519;SDS011;33252;48.122;11.538;2023-09-19T08:34:23;35.65;;;34.55;;
47519;SDS011;33252;48.122;11.538;2023-09-19T08:36:53;36.30;;;35.08;;
47519;SDS011;33252;48.122;11.538;2023-09-19T08:39:22;42.13;;;40.78;;
47519;SDS011;33252;48.122;11.538;2023-09-19T08:41:49;17.92;;;17.42;;
47519;SDS011;33252;48.122;11.538;2023-09-19T08:44:15;19.33;;;18.65;;
47519;SDS011;33252;48.122;11.538;2023-09-19T08:46:41;18.42;;;17.77;;
47519;SDS011;33252;48.122;11.538;2023-09-19T08:49:11;45.67;;;44.30;;
47519;SDS011;33252;48.122;11.538;2023-09-19T08:51:47;30.80;;;29.67;;
47519;SDS011;33252;48.122;11.538;2023-09-19T08:54:41;24.42;;;23.65;;
47519;SDS011;33252;48.122;11.538;2023-09-19T08:57:07;11.43;;;10.95;;
47519;SDS011;33252;48.122;11.538;2023-09-19T08:59:36;17.80;;;17.25;;
47519;SDS011;33252;48.122;11.538;2023-09-19T09:02:06;16.83;;;16.23;;
47519;SDS011;33252;48.122;11.538;2023-09-19T09:04:37;10.73;;;10.40;;
47519;SDS011;33252;48.122;11.538;2023-09-19T09:07:06;63.58;;;61.63;;
47519;SDS011;33252;48.122;11.538;2023-09-19T09:09:39;95.60;;;92.40;;
47519;SDS011;33252;48.122;11.538;2023-09-19T09:12:12;117.93;;;113.97;;
47519;SDS011;33252;48.122;11.538;2023-09-19T09:14:47;78.30;;;75.78;;
47519;SDS011;33252;48.122;11.538;2023-09-19T09:17:17;80.40;;;77.80;;
47519;SDS011;33252;48.122;11.538;2023-09-19T09:19:45;119.65;;;115.47;;
47519;SDS011;33252;48.122;11.538;2023-09-19T09:22:13;23.48;;;22.77;;
47519;SDS011;33252;48.122;11.538;2023-09-19T09:24:55;26.95;;;26.10;;
47519;SDS011;33252;48.122;11.538;2023-09-19T09:27:29;29.63;;;28.30;;
47519;SDS011;33252;48.122;11.538;2023-09-19T09:29:55;36.88;;;35.72;;
47519;SDS011;33252;48.122;11.538;2023-09-19T09:32:24;51.33;;;49.72;;
47519;SDS011;33252;48.122;11.538;2023-09-19T09:34:54;11.15;;;10.55;;
47519;SDS011;33252;48.122;11.538;2023-09-19T09:37:21;24.60;;;23.80;;
47519;SDS011;33252;48.122;11.538;2023-09-19T09:39:56;18.33;;;17.63;;
47519;SDS011;33252;48.122;11.538;2023-09-19T09:42:36;13.03;;;12.57;;
47519;SDS011;33252;48.122;11.538;2023-09-19T09:45:20;27.83;;;27.02;;
47519;SDS011;33252;48.122;11.538;2023-09-19T09:48:07;26.50;;;25.30;;
47519;SDS011;33252;48.122;11.538;2023-09-19T09:50:46;43.00;;;41.45;;
47519;SDS011;33252;48.122;11.538;2023-09-19T09:56:00;22.85;;;22.10;;
47519;SDS011;33252;48.122;11.538;2023-09-19T09:58:31;96.00;;;92.97;;
47519;SDS011;33252;48.122;11.538;2023-09-19T10:01:00;70.88;;;68.78;;
47519;SDS011;33252;48.122;11.538;2023-09-19T10:03:40;60.33;;;58.40;;
47519;SDS011;33252;48.122;11.538;2023-09-19T10:06:09;49.95;;;48.45;;
47519;SDS011;33252;48.122;11.538;2023-09-19T10:11:45;31.25;;;30.35;;
47519;SDS011;33252;48.122;11.538;2023-09-19T10:14:25;28.02;;;27.23;;
47519;SDS011;33252;48.122;11.538;2023-09-19T10:16:56;8.50;;;8.20;;
47519;SDS011;33252;48.122;11.538;2023-09-19T10:19:38;9.55;;;9.25;;
47519;SDS011;33252;48.122;11.538;2023-09-19T10:22:11;7.78;;;7.28;;
47519;SDS011;33252;48.122;11.538;2023-09-19T10:24:39;1.50;;;1.40;;
47519;SDS011;33252;48.122;11.538;2023-09-19T10:27:06;15.35;;;14.95;;
47519;SDS011;33252;48.122;11.538;2023-09-19T10:29:36;3.10;;;3.00;;
47519;SDS011;33252;48.122;11.538;2023-09-19T10:32:05;16.48;;;15.85;;
47519;SDS011;33252;48.122;11.538;2023-09-19T10:34:34;10.88;;;10.57;;
47519;SDS011;33252;48.122;11.538;2023-09-19T10:37:02;13.02;;;12.55;;
47519;SDS011;33252;48.122;11.538;2023-09-19T10:39:31;6.03;;;5.82;;
47519;SDS011;33252;48.122;11.538;2023-09-19T10:41:59;4.90;;;4.72;;
47519;SDS011;33252;48.122;11.538;2023-09-19T10:44:31;3.30;;;3.20;;
47519;SDS011;33252;48.122;11.538;2023-09-19T10:46:57;5.82;;;5.53;;
47519;SDS011;33252;48.122;11.538;2023-09-19T10:49:24;3.97;;;3.70;;
47519;SDS011;33252;48.122;11.538;2023-09-19T10:51:54;10.85;;;10.52;;
47519;SDS011;33252;48.122;11.538;2023-09-19T10:54:24;4.35;;;4.05;;
47519;SDS011;33252;48.122;11.538;2023-09-19T10:56:54;5.47;;;5.30;;
47519;SDS011;33252;48.122;11.538;2023-09-19T10:59:23;5.57;;;5.15;;
47519;SDS011;33252;48.122;11.538;2023-09-19T11:01:53;6.32;;;6.03;;
47519;SDS011;33252;48.122;11.538;2023-09-19T11:04:34;6.55;;;6.35;;
47519;SDS011;33252;48.122;11.538;2023-09-19T11:09:48;6.32;;;6.00;;
47519;SDS011;33252;48.122;11.538;2023-09-19T11:15:08;4.97;;;4.80;;
47519;SDS011;33252;48.122;11.538;2023-09-19T11:23:22;29.98;;;29.08;;
47519;SDS011;33252;48.122;11.538;2023-09-19T11:30:47;15.93;;;15.23;;
47519;SDS011;33252;48.122;11.538;2023-09-19T11:33:24;12.50;;;12.10;;
47519;SDS011;33252;48.122;11.538;2023-09-19T11:43:46;13.68;;;13.27;;
47519;SDS011;33252;48.122;11.538;2023-09-19T11:46:13;13.75;;;13.35;;
47519;SDS011;33252;48.122;11.538;2023-09-19T11:48:41;9.27;;;8.98;;
47519;SDS011;33252;48.122;11.538;2023-09-19T11:51:12;4.38;;;4.00;;
47519;SDS011;33252;48.122;11.538;2023-09-19T11:53:51;4.10;;;3.90;;
47519;SDS011;33252;48.122;11.538;2023-09-19T11:56:20;4.65;;;4.45;;
47519;SDS011;33252;48.122;11.538;2023-09-19T11:58:49;3.60;;;3.30;;
47519;SDS011;33252;48.122;11.538;2023-09-19T12:01:21;5.53;;;5.22;;
47519;SDS011;33252;48.122;11.538;2023-09-19T12:03:58;3.47;;;3.38;;
47519;SDS011;33252;48.122;11.538;2023-09-19T12:06:27;4.60;;;4.50;;
47519;SDS011;33252;48.122;11.538;2023-09-19T12:08:57;4.20;;;4.10;;
47519;SDS011;33252;48.122;11.538;2023-09-19T12:11:28;4.82;;;4.57;;
47519;SDS011;33252;48.122;11.538;2023-09-19T12:13:58;3.78;;;3.63;;
47519;SDS011;33252;48.122;11.538;2023-09-19T12:16:25;4.70;;;4.60;;
47519;SDS011;33252;48.122;11.538;2023-09-19T12:18:55;4.88;;;4.68;;
47519;SDS011;33252;48.122;11.538;2023-09-19T12:24:07;6.00;;;5.80;;
47519;SDS011;33252;48.122;11.538;2023-09-19T12:26:42;7.60;;;7.38;;
47519;SDS011;33252;48.122;11.538;2023-09-19T12:31:47;1.10;;;1.08;;
47519;SDS011;33252;48.122;11.538;2023-09-19T12:34:23;0.70;;;0.57;;
47519;SDS011;33252;48.122;11.538;2023-09-19T12:37:05;3.03;;;1.05;;
47519;SDS011;33252;48.122;11.538;2023-09-19T12:39:50;1.65;;;0.88;;
47519;SDS011;33252;48.122;11.538;2023-09-19T12:42:23;1.55;;;1.13;;
47519;SDS011;33252;48.122;11.538;2023-09-19T12:44:54;1.08;;;1.00;;
47519;SDS011;33252;48.122;11.538;2023-09-19T12:47:22;2.03;;;1.15;;
47519;SDS011;33252;48.122;11.538;2023-09-19T12:52:38;3.95;;;3.67;;
47519;SDS011;33252;48.122;11.538;2023-09-19T12:55:05;1.30;;;1.20;;
47519;SDS011;33252;48.122;11.538;2023-09-19T12:57:36;1.48;;;1.38;;
47519;SDS011;33252;48.122;11.538;2023-09-19T13:00:02;1.85;;;1.75;;
47519;SDS011;33252;48.122;11.538;2023-09-19T13:02:31;1.67;;;1.10;;
47519;SDS011;33252;48.122;11.538;2023-09-19T13:04:57;1.17;;;1.05;;
47519;SDS011;33252;48.122;11.538;2023-09-19T13:07:39;1.27;;;0.63;;
47519;SDS011;33252;48.122;11.538;2023-09-19T13:10:08;1.25;;;1.13;;
47519;SDS011;33252;48.122;11.538;2023-09-19T13:12:35;1.67;;;1.45;;
47519;SDS011;33252;48.122;11.538;2023-09-19T13:15:09;2.88;;;2.78;;
47519;SDS011;33252;48.122;11.538;2023-09-19T13:17:47;4.05;;;3.38;;
47519;SDS011;33252;48.122;11.538;2023-09-19T13:20:21;1.95;;;1.85;;
47519;SDS011;33252;48.122;11.538;2023-09-19T13:22:55;2.95;;;2.80;;
47519;SDS011;33252;48.122;11.538;2023-09-19T13:25:25;1.63;;;0.90;;
47519;SDS011;33252;48.122;11.538;2023-09-19T13:27:53;1.92;;;1.83;;
47519;SDS011;33252;48.122;11.538;2023-09-19T13:30:22;1.73;;;1.33;;
47519;SDS011;33252;48.122;11.538;2023-09-19T13:32:50;3.30;;;1.65;;
47519;SDS011;33252;48.122;11.538;2023-09-19T13:35:17;5.47;;;5.28;;
47519;SDS011;33252;48.122;11.538;2023-09-19T13:37:43;2.55;;;2.45;;
47519;SDS011;33252;48.122;11.538;2023-09-19T13:40:11;3.92;;;3.53;;
47519;SDS011;33252;48.122;11.538;2023-09-19T13:42:38;2.42;;;2.22;;
47519;SDS011;33252;48.122;11.538;2023-09-19T13:45:05;4.30;;;4.00;;
47519;SDS011;33252;48.122;11.538;2023-09-19T13:47:31;5.28;;;5.07;;
47519;SDS011;33252;48.122;11.538;2023-09-19T13:49:58;0.82;;;0.70;;
47519;SDS011;33252;48.122;11.538;2023-09-19T13:52:24;1.73;;;1.60;;
47519;SDS011;33252;48.122;11.538;2023-09-19T13:54:53;0.98;;;0.95;;
47519;SDS011;33252;48.122;11.538;2023-09-19T13:57:21;1.88;;;0.65;;
47519;SDS011;33252;48.122;11.538;2023-09-19T13:59:47;2.70;;;0.80;;
47519;SDS011;33252;48.122;11.538;2023-09-19T14:02:13;1.70;;;1.17;;
47519;SDS011;33252;48.122;11.538;2023-09-19T14:04:39;3.60;;;0.50;;
47519;SDS011;33252;48.122;11.538;2023-09-19T14:07:05;0.57;;;0.57;;
47519;SDS011;33252;48.122;11.538;2023-09-19T14:09:32;1.63;;;1.00;;
47519;SDS011;33252;48.122;11.538;2023-09-19T14:11:58;2.38;;;1.13;;
47519;SDS011;33252;48.122;11.538;2023-09-19T14:14:24;2.05;;;1.10;;
47519;SDS011;33252;48.122;11.538;2023-09-19T14:16:50;0.85;;;0.70;;
47519;SDS011;33252;48.122;11.538;2023-09-19T14:19:17;0.57;;;0.40;;
47519;SDS011;33252;48.122;11.538;2023-09-19T14:21:43;1.40;;;1.23;;
47519;SDS011;33252;48.122;11.538;2023-09-19T14:24:09;2.88;;;0.90;;
47519;SDS011;33252;48.122;11.538;2023-09-19T14:26:38;2.00;;;1.90;;
47519;SDS011;33252;48.122;11.538;2023-09-19T14:29:04;0.70;;;0.70;;
47519;SDS011;33252;48.122;11.538;2023-09-19T14:31:32;1.20;;;0.50;;
47519;SDS011;33252;48.122;11.538;2023-09-19T14:33:58;2.65;;;1.70;;
47519;SDS011;33252;48.122;11.538;2023-09-19T14:36:24;1.25;;;0.95;;
47519;SDS011;33252;48.122;11.538;2023-09-19T14:38:54;1.02;;;1.02;;
47519;SDS011;33252;48.122;11.538;2023-09-19T14:41:20;0.95;;;0.52;;
47519;SDS011;33252;48.122;11.538;2023-09-19T14:43:47;2.22;;;1.65;;
47519;SDS011;33252;48.122;11.538;2023-09-19T14:46:14;1.40;;;0.50;;
47519;SDS011;33252;48.122;11.538;2023-09-19T14:48:39;1.63;;;1.52;;
47519;SDS011;33252;48.122;11.538;2023-09-19T14:51:06;3.38;;;1.10;;
47519;SDS011;33252;48.122;11.538;2023-09-19T14:53:37;0.65;;;0.40;;
47519;SDS011;33252;48.122;11.538;2023-09-19T14:56:03;1.33;;;0.50;;
47519;SDS011;33252;48.122;11.538;2023-09-19T14:58:30;1.35;;;0.60;;
47519;SDS011;33252;48.122;11.538;2023-09-19T15:01:06;1.00;;;0.80;;
47519;SDS011;33252;48.122;11.538;2023-09-19T15:03:33;1.05;;;0.52;;
47519;SDS011;33252;48.122;11.538;2023-09-19T15:06:03;3.30;;;0.85;;
47519;SDS011;33252;48.122;11.538;2023-09-19T15:08:30;1.42;;;0.70;;
47519;SDS011;33252;48.122;11.538;2023-09-19T15:10:56;1.08;;;0.75;;
47519;SDS011;33252;48.122;11.538;2023-09-19T15:13:23;0.98;;;0.52;;
47519;SDS011;33252;48.122;11.538;2023-09-19T15:15:58;1.17;;;1.02;;
47519;SDS011;33252;48.122;11.538;2023-09-19T15:18:24;0.70;;;0.50;;
47519;SDS011;33252;48.122;11.538;2023-09-19T15:20:50;2.25;;;0.60;;
47519;SDS011;33252;48.122;11.538;2023-09-19T15:23:16;0.60;;;0.52;;